createdAt,value
2018-06-18T00:00:10.283Z,965.29
2018-06-18T00:01:10.265Z,965.33
2018-06-18T00:02:10.248Z,965.31
2018-06-18T00:03:10.230Z,965.33
2018-06-18T00:04:10.213Z,965.35
2018-06-18T00:05:10.196Z,965.30
2018-06-18T00:06:10.178Z,965.32
2018-06-18T00:07:10.158Z,965.33
2018-06-18T00:08:10.140Z,965.32
2018-06-18T00:09:10.125Z,965.35
2018-06-18T00:10:10.106Z,965.35
2018-06-18T00:11:10.089Z,965.33
2018-06-18T00:12:10.072Z,965.33
2018-06-18T00:13:10.054Z,965.33
2018-06-18T00:14:10.036Z,965.30
2018-06-18T00:15:10.020Z,965.29
2018-06-18T00:16:10.001Z,965.32
2018-06-18T00:17:09.982Z,965.31
2018-06-18T00:18:09.965Z,965.31
2018-06-18T00:19:09.947Z,965.35
2018-06-18T00:20:09.930Z,965.35
2018-06-18T00:21:09.911Z,965.35
2018-06-18T00:22:09.893Z,965.37
2018-06-18T00:23:09.875Z,965.35
2018-06-18T00:24:09.859Z,965.36
2018-06-18T00:25:09.842Z,965.33
2018-06-18T00:26:09.822Z,965.32
2018-06-18T00:27:09.805Z,965.35
2018-06-18T00:28:09.787Z,965.34
2018-06-18T00:29:09.770Z,965.36
2018-06-18T00:30:09.767Z,965.35
2018-06-18T00:31:09.734Z,965.30
2018-06-18T00:32:09.716Z,965.35
2018-06-18T00:33:09.698Z,965.32
2018-06-18T00:34:09.683Z,965.33
2018-06-18T00:35:09.662Z,965.32
2018-06-18T00:36:09.649Z,965.35
2018-06-18T00:37:09.629Z,965.35
2018-06-18T00:38:09.611Z,965.36
2018-06-18T00:39:09.593Z,965.40
2018-06-18T00:40:09.573Z,965.35
2018-06-18T00:41:09.556Z,965.40
2018-06-18T00:42:09.538Z,965.35
2018-06-18T00:43:10.273Z,965.33
2018-06-18T00:44:09.502Z,965.31
2018-06-18T00:45:09.485Z,965.34
2018-06-18T00:46:09.469Z,965.32
2018-06-18T00:47:09.448Z,965.30
2018-06-18T00:48:09.431Z,965.35
2018-06-18T00:49:09.415Z,965.36
2018-06-18T00:50:09.397Z,965.31
2018-06-18T00:51:09.377Z,965.32
2018-06-18T00:52:09.360Z,965.28
2018-06-18T00:53:09.343Z,965.30
2018-06-18T00:54:09.331Z,965.28
2018-06-18T00:55:09.307Z,965.26
2018-06-18T00:56:09.290Z,965.25
2018-06-18T00:57:09.271Z,965.23
2018-06-18T00:58:09.254Z,965.19
2018-06-18T00:59:09.234Z,965.20
2018-06-18T01:00:09.216Z,965.20
2018-06-18T01:01:09.200Z,965.21
2018-06-18T01:02:09.185Z,965.18
2018-06-18T01:03:09.162Z,965.23
2018-06-18T01:04:09.145Z,965.19
2018-06-18T01:05:09.128Z,965.22
2018-06-18T01:06:09.112Z,965.25
2018-06-18T01:07:09.091Z,965.24
2018-06-18T01:08:09.074Z,965.25
2018-06-18T01:09:09.060Z,965.25
2018-06-18T01:10:09.039Z,965.27
2018-06-18T01:11:09.019Z,965.31
2018-06-18T01:12:09.003Z,965.30
2018-06-18T01:13:08.988Z,965.30
2018-06-18T01:14:08.970Z,965.32
2018-06-18T01:15:08.948Z,965.29
2018-06-18T01:16:08.930Z,965.29
2018-06-18T01:17:08.912Z,965.31
2018-06-18T01:18:08.894Z,965.29
2018-06-18T01:19:08.875Z,965.28
2018-06-18T01:20:08.858Z,965.27
2018-06-18T01:21:08.849Z,965.24
2018-06-18T01:22:08.822Z,965.26
2018-06-18T01:23:08.804Z,965.30
2018-06-18T01:24:08.787Z,965.29
2018-06-18T01:25:08.768Z,965.28
2018-06-18T01:26:08.751Z,965.30
2018-06-18T01:27:08.733Z,965.28
2018-06-18T01:28:08.714Z,965.27
2018-06-18T01:29:08.698Z,965.24
2018-06-18T01:30:08.679Z,965.26
2018-06-18T01:31:08.667Z,965.23
2018-06-18T01:32:08.644Z,965.20
2018-06-18T01:33:08.626Z,965.24
2018-06-18T01:34:08.609Z,965.24
2018-06-18T01:35:08.591Z,965.23
2018-06-18T01:36:08.571Z,965.26
2018-06-18T01:37:08.555Z,965.22
2018-06-18T01:38:08.537Z,965.28
2018-06-18T01:39:08.520Z,965.25
2018-06-18T01:40:08.500Z,965.23
2018-06-18T01:41:09.233Z,965.23
2018-06-18T01:42:08.465Z,965.26
2018-06-18T01:43:08.446Z,965.21
2018-06-18T01:44:08.428Z,965.20
2018-06-18T01:45:08.412Z,965.24
2018-06-18T01:46:08.396Z,965.21
2018-06-18T01:47:08.378Z,965.24
2018-06-18T01:48:08.359Z,965.21
2018-06-18T01:49:08.341Z,965.19
2018-06-18T01:50:08.377Z,965.17
2018-06-18T01:51:08.304Z,965.16
2018-06-18T01:52:09.791Z,965.15
2018-06-18T01:53:08.268Z,965.14
2018-06-18T01:54:08.250Z,965.15
2018-06-18T01:55:08.235Z,965.17
2018-06-18T01:56:08.213Z,965.18
2018-06-18T01:57:08.197Z,965.15
2018-06-18T01:58:08.928Z,965.15
2018-06-18T01:59:08.159Z,965.17
2018-06-18T02:00:08.142Z,965.17
2018-06-18T02:01:08.124Z,965.19
2018-06-18T02:02:08.108Z,965.25
2018-06-18T02:03:08.089Z,965.21
2018-06-18T02:04:08.076Z,965.22
2018-06-18T02:05:08.054Z,965.20
2018-06-18T02:06:08.035Z,965.20
2018-06-18T02:07:08.016Z,965.21
2018-06-18T02:08:08.000Z,965.18
2018-06-18T02:09:08.732Z,965.21
2018-06-18T02:10:07.963Z,965.23
2018-06-18T02:11:07.945Z,965.24
2018-06-18T02:12:07.929Z,965.23
2018-06-18T02:13:07.910Z,965.20
2018-06-18T02:14:07.893Z,965.25
2018-06-18T02:15:07.872Z,965.23
2018-06-18T02:16:07.907Z,965.22
2018-06-18T02:17:07.837Z,965.21
2018-06-18T02:18:07.820Z,965.19
2018-06-18T02:19:07.804Z,965.25
2018-06-18T02:20:07.784Z,965.25
2018-06-18T02:21:07.768Z,965.25
2018-06-18T02:22:07.749Z,965.25
2018-06-18T02:23:07.728Z,965.25
2018-06-18T02:24:07.711Z,965.25
2018-06-18T02:25:07.693Z,965.32
2018-06-18T02:26:07.676Z,965.31
2018-06-18T02:27:07.657Z,965.36
2018-06-18T02:28:07.639Z,965.35
2018-06-18T02:29:07.622Z,965.39
2018-06-18T02:30:07.604Z,965.39
2018-06-18T02:31:07.585Z,965.37
2018-06-18T02:32:07.568Z,965.37
2018-06-18T02:33:07.550Z,965.35
2018-06-18T02:34:07.536Z,965.32
2018-06-18T02:35:07.513Z,965.25
2018-06-18T02:36:08.247Z,965.19
2018-06-18T02:37:07.479Z,965.18
2018-06-18T02:38:07.468Z,965.17
2018-06-18T02:39:07.445Z,965.15
2018-06-18T02:40:07.424Z,965.15
2018-06-18T02:41:07.407Z,965.18
2018-06-18T02:42:07.390Z,965.17
2018-06-18T02:43:07.371Z,965.17
2018-06-18T02:44:07.354Z,965.14
2018-06-18T02:45:07.342Z,965.14
2018-06-18T02:46:07.318Z,965.10
2018-06-18T02:47:07.300Z,965.11
2018-06-18T02:48:07.283Z,965.09
2018-06-18T02:49:07.264Z,965.12
2018-06-18T02:50:07.247Z,965.12
2018-06-18T02:51:07.227Z,965.14
2018-06-18T02:52:07.210Z,965.15
2018-06-18T02:53:07.192Z,965.19
2018-06-18T02:54:07.174Z,965.29
2018-06-18T02:55:07.155Z,965.33
2018-06-18T02:56:07.139Z,965.40
2018-06-18T02:57:07.123Z,965.46
2018-06-18T02:58:07.104Z,965.47
2018-06-18T02:59:07.085Z,965.48
2018-06-18T03:00:07.069Z,965.51
2018-06-18T03:01:07.049Z,965.46
2018-06-18T03:02:07.032Z,965.54
2018-06-18T03:03:07.014Z,965.59
2018-06-18T03:04:06.996Z,965.63
2018-06-18T03:05:06.979Z,965.69
2018-06-18T03:06:06.962Z,965.71
2018-06-18T03:07:06.942Z,965.74
2018-06-18T03:08:06.927Z,965.68
2018-06-18T03:09:06.907Z,965.71
2018-06-18T03:10:06.890Z,965.66
2018-06-18T03:11:06.873Z,965.63
2018-06-18T03:12:06.853Z,965.61
2018-06-18T03:13:06.836Z,965.59
2018-06-18T03:14:06.818Z,965.61
2018-06-18T03:15:06.800Z,965.62
2018-06-18T03:16:06.790Z,965.62
2018-06-18T03:17:06.765Z,965.59
2018-06-18T03:18:06.747Z,965.61
2018-06-18T03:19:07.479Z,965.66
2018-06-18T03:20:06.718Z,965.68
2018-06-18T03:21:06.694Z,965.67
2018-06-18T03:22:06.676Z,965.63
2018-06-18T03:23:06.657Z,965.64
2018-06-18T03:24:06.641Z,965.59
2018-06-18T03:25:06.622Z,965.56
2018-06-18T03:26:06.606Z,965.55
2018-06-18T03:27:06.587Z,965.55
2018-06-18T03:28:06.574Z,965.55
2018-06-18T03:29:06.552Z,965.54
2018-06-18T03:30:06.536Z,965.52
2018-06-18T03:31:06.517Z,965.52
2018-06-18T03:32:06.500Z,965.46
2018-06-18T03:33:06.481Z,965.44
2018-06-18T03:34:06.463Z,965.44
2018-06-18T03:35:06.450Z,965.45
2018-06-18T03:36:06.428Z,965.47
2018-06-18T03:37:06.449Z,965.49
2018-06-18T03:38:06.391Z,965.47
2018-06-18T03:39:06.373Z,965.50
2018-06-18T03:40:06.355Z,965.52
2018-06-18T03:41:06.338Z,965.47
2018-06-18T03:42:06.321Z,965.52
2018-06-18T03:43:06.303Z,965.51
2018-06-18T03:44:06.285Z,965.54
2018-06-18T03:45:06.267Z,965.54
2018-06-18T03:46:06.250Z,965.54
2018-06-18T03:47:06.231Z,965.57
2018-06-18T03:48:06.214Z,965.57
2018-06-18T03:49:06.197Z,965.56
2018-06-18T03:50:06.179Z,965.58
2018-06-18T03:51:06.160Z,965.51
2018-06-18T03:52:06.144Z,965.57
2018-06-18T03:53:06.127Z,965.59
2018-06-18T03:54:06.109Z,965.58
2018-06-18T03:55:06.090Z,965.58
2018-06-18T03:56:06.076Z,965.58
2018-06-18T03:57:06.057Z,965.60
2018-06-18T03:58:06.039Z,965.62
2018-06-18T03:59:06.025Z,965.65
2018-06-18T04:00:06.004Z,965.65
2018-06-18T04:01:05.984Z,965.66
2018-06-18T04:02:05.968Z,965.68
2018-06-18T04:03:05.950Z,965.68
2018-06-18T04:04:05.932Z,965.65
2018-06-18T04:05:05.915Z,965.66
2018-06-18T04:06:05.897Z,965.68
2018-06-18T04:07:05.879Z,965.66
2018-06-18T04:08:05.862Z,965.64
2018-06-18T04:09:05.845Z,965.64
2018-06-18T04:10:05.829Z,965.65
2018-06-18T04:11:05.813Z,965.65
2018-06-18T04:12:05.792Z,965.67
2018-06-18T04:13:05.774Z,965.70
2018-06-18T04:14:05.758Z,965.68
2018-06-18T04:15:05.741Z,965.65
2018-06-18T04:16:05.725Z,965.64
2018-06-18T04:17:05.705Z,965.63
2018-06-18T04:18:05.688Z,965.61
2018-06-18T04:19:05.669Z,965.62
2018-06-18T04:20:05.651Z,965.64
2018-06-18T04:21:05.639Z,965.66
2018-06-18T04:22:05.616Z,965.68
2018-06-18T04:23:05.598Z,965.69
2018-06-18T04:24:05.581Z,965.69
2018-06-18T04:25:05.564Z,965.69
2018-06-18T04:26:05.548Z,965.69
2018-06-18T04:27:05.528Z,965.69
2018-06-18T04:28:05.514Z,965.73
2018-06-18T04:29:05.494Z,965.78
2018-06-18T04:30:05.481Z,965.78
2018-06-18T04:31:05.486Z,965.84
2018-06-18T04:32:05.442Z,965.84
2018-06-18T04:33:05.424Z,965.87
2018-06-18T04:34:05.406Z,965.88
2018-06-18T04:35:05.388Z,965.91
2018-06-18T04:36:05.371Z,965.83
2018-06-18T04:37:05.354Z,965.83
2018-06-18T04:38:05.337Z,965.82
2018-06-18T04:39:05.320Z,965.81
2018-06-18T04:40:05.303Z,965.75
2018-06-18T04:41:05.285Z,965.76
2018-06-18T04:42:05.269Z,965.77
2018-06-18T04:43:05.249Z,965.79
2018-06-18T04:44:05.232Z,965.78
2018-06-18T04:45:05.219Z,965.82
2018-06-18T04:46:05.198Z,965.87
2018-06-18T04:47:05.180Z,965.89
2018-06-18T04:48:05.162Z,965.88
2018-06-18T04:49:05.146Z,965.88
2018-06-18T04:50:05.131Z,965.88
2018-06-18T04:51:05.111Z,965.89
2018-06-18T04:52:05.094Z,965.87
2018-06-18T04:53:05.076Z,965.82
2018-06-18T04:54:05.059Z,965.85
2018-06-18T04:55:05.041Z,965.81
2018-06-18T04:56:05.023Z,965.80
2018-06-18T04:57:05.006Z,965.78
2018-06-18T04:58:04.988Z,965.78
2018-06-18T04:59:04.971Z,965.77
2018-06-18T05:00:04.955Z,965.81
2018-06-18T05:01:04.938Z,965.81
2018-06-18T05:02:04.924Z,965.81
2018-06-18T05:03:04.903Z,965.84
2018-06-18T05:04:04.885Z,965.83
2018-06-18T05:05:04.869Z,965.81
2018-06-18T05:06:04.850Z,965.85
2018-06-18T05:07:04.833Z,965.87
2018-06-18T05:08:04.815Z,965.84
2018-06-18T05:09:04.799Z,965.85
2018-06-18T05:10:04.782Z,965.81
2018-06-18T05:11:04.766Z,965.84
2018-06-18T05:12:04.747Z,965.79
2018-06-18T05:13:04.735Z,965.77
2018-06-18T05:14:04.714Z,965.80
2018-06-18T05:15:04.745Z,965.76
2018-06-18T05:16:04.678Z,965.77
2018-06-18T05:17:04.662Z,965.81
2018-06-18T05:18:04.644Z,965.76
2018-06-18T05:19:04.628Z,965.74
2018-06-18T05:20:04.610Z,965.75
2018-06-18T05:21:04.594Z,965.75
2018-06-18T05:22:04.577Z,965.75
2018-06-18T05:23:04.560Z,965.76
2018-06-18T05:24:04.543Z,965.78
2018-06-18T05:25:04.526Z,965.82
2018-06-18T05:26:04.509Z,965.88
2018-06-18T05:27:04.491Z,965.92
2018-06-18T05:28:04.473Z,965.96
2018-06-18T05:29:04.457Z,965.92
2018-06-18T05:30:04.441Z,965.91
2018-06-18T05:31:04.423Z,965.92
2018-06-18T05:32:04.405Z,965.90
2018-06-18T05:33:04.390Z,965.89
2018-06-18T05:34:04.373Z,965.90
2018-06-18T05:35:04.355Z,965.89
2018-06-18T05:36:04.339Z,965.92
2018-06-18T05:37:04.322Z,965.89
2018-06-18T05:38:04.306Z,965.89
2018-06-18T05:39:04.289Z,965.87
2018-06-18T05:40:04.272Z,965.82
2018-06-18T05:41:04.256Z,965.79
2018-06-18T05:42:04.238Z,965.81
2018-06-18T05:43:04.221Z,965.82
2018-06-18T05:44:04.204Z,965.82
2018-06-18T05:45:04.187Z,965.86
2018-06-18T05:46:04.170Z,965.86
2018-06-18T05:47:04.153Z,965.89
2018-06-18T05:48:04.136Z,965.90
2018-06-18T05:49:04.119Z,965.89
2018-06-18T05:50:04.103Z,965.83
2018-06-18T05:51:04.087Z,965.83
2018-06-18T05:52:04.075Z,965.80
2018-06-18T05:53:04.055Z,965.84
2018-06-18T05:54:05.538Z,965.87
2018-06-18T05:55:04.022Z,965.92
2018-06-18T05:56:04.002Z,965.94
2018-06-18T05:57:03.989Z,965.98
2018-06-18T05:58:03.970Z,966.00
2018-06-18T05:59:03.951Z,965.96
2018-06-18T06:00:03.936Z,965.99
2018-06-18T06:01:03.918Z,965.99
2018-06-18T06:02:03.901Z,965.99
2018-06-18T06:03:03.884Z,966.02
2018-06-18T06:04:03.867Z,966.06
2018-06-18T06:05:03.851Z,966.08
2018-06-18T06:06:03.881Z,966.07
2018-06-18T06:07:03.817Z,966.06
2018-06-18T06:08:03.800Z,966.04
2018-06-18T06:09:03.784Z,966.03
2018-06-18T06:10:03.769Z,966.03
2018-06-18T06:11:03.753Z,966.03
2018-06-18T06:12:03.733Z,966.01
2018-06-18T06:13:03.722Z,966.01
2018-06-18T06:14:03.702Z,966.04
2018-06-18T06:15:03.684Z,966.03
2018-06-18T06:16:03.670Z,966.04
2018-06-18T06:17:03.652Z,966.10
2018-06-18T06:18:03.634Z,966.10
2018-06-18T06:19:03.617Z,966.10
2018-06-18T06:20:03.601Z,966.16
2018-06-18T06:21:03.585Z,966.14
2018-06-18T06:22:03.576Z,966.18
2018-06-18T06:23:03.552Z,966.18
2018-06-18T06:24:03.537Z,966.18
2018-06-18T06:25:03.522Z,966.23
2018-06-18T06:26:03.503Z,966.23
2018-06-18T06:27:03.486Z,966.30
2018-06-18T06:28:03.470Z,966.25
2018-06-18T06:29:03.455Z,966.29
2018-06-18T06:30:03.468Z,966.25
2018-06-18T06:31:03.421Z,966.22
2018-06-18T06:32:03.405Z,966.25
2018-06-18T06:33:03.391Z,966.25
2018-06-18T06:34:03.379Z,966.21
2018-06-18T06:35:03.358Z,966.24
2018-06-18T06:36:03.341Z,966.25
2018-06-18T06:37:03.325Z,966.27
2018-06-18T06:38:03.309Z,966.28
2018-06-18T06:39:03.293Z,966.30
2018-06-18T06:40:03.278Z,966.32
2018-06-18T06:41:03.261Z,966.28
2018-06-18T06:42:03.245Z,966.32
2018-06-18T06:43:03.230Z,966.32
2018-06-18T06:44:03.212Z,966.28
2018-06-18T06:45:03.198Z,966.29
2018-06-18T06:46:03.183Z,966.32
2018-06-18T06:47:03.166Z,966.33
2018-06-18T06:48:03.196Z,966.32
2018-06-18T06:49:03.134Z,966.38
2018-06-18T06:50:03.119Z,966.35
2018-06-18T06:51:03.102Z,966.36
2018-06-18T06:52:03.087Z,966.34
2018-06-18T06:53:03.071Z,966.34
2018-06-18T06:54:03.059Z,966.35
2018-06-18T06:55:03.040Z,966.34
2018-06-18T06:56:03.079Z,966.37
2018-06-18T06:57:03.011Z,966.36
2018-06-18T06:58:02.996Z,966.36
2018-06-18T06:59:02.979Z,966.38
2018-06-18T07:00:02.963Z,966.37
2018-06-18T07:01:02.949Z,966.37
2018-06-18T07:02:02.933Z,966.37
2018-06-18T07:03:02.918Z,966.39
2018-06-18T07:04:02.902Z,966.37
2018-06-18T07:05:02.889Z,966.35
2018-06-18T07:06:02.873Z,966.33
2018-06-18T07:07:02.858Z,966.32
2018-06-18T07:08:02.903Z,966.35
2018-06-18T07:09:02.828Z,966.33
2018-06-18T07:10:02.814Z,966.38
2018-06-18T07:11:02.797Z,966.36
2018-06-18T07:12:02.784Z,966.38
2018-06-18T07:13:02.768Z,966.36
2018-06-18T07:14:02.754Z,966.33
2018-06-18T07:15:02.741Z,966.36
2018-06-18T07:16:02.726Z,966.40
2018-06-18T07:17:02.710Z,966.43
2018-06-18T07:18:02.694Z,966.38
2018-06-18T07:19:02.679Z,966.48
2018-06-18T07:20:02.664Z,966.44
2018-06-18T07:21:02.651Z,966.43
2018-06-18T07:22:02.636Z,966.41
2018-06-18T07:23:02.620Z,966.39
2018-06-18T07:24:02.606Z,966.36
2018-06-18T07:25:02.594Z,966.36
2018-06-18T07:26:02.618Z,966.34
2018-06-18T07:27:02.573Z,966.32
2018-06-18T07:28:02.549Z,966.36
2018-06-18T07:29:02.537Z,966.39
2018-06-18T07:30:02.522Z,966.33
2018-06-18T07:31:02.507Z,966.28
2018-06-18T07:32:02.494Z,966.32
2018-06-18T07:33:02.482Z,966.33
2018-06-18T07:34:02.465Z,966.35
2018-06-18T07:35:02.451Z,966.31
2018-06-18T07:36:04.691Z,966.34
2018-06-18T07:37:02.424Z,966.34
2018-06-18T07:38:02.410Z,966.32
2018-06-18T07:39:02.395Z,966.34
2018-06-18T07:40:02.382Z,966.33
2018-06-18T07:41:02.368Z,966.29
2018-06-18T07:42:02.358Z,966.26
2018-06-18T07:43:02.342Z,966.26
2018-06-18T07:44:02.326Z,966.24
2018-06-18T07:45:02.313Z,966.28
2018-06-18T07:46:02.301Z,966.26
2018-06-18T07:47:02.291Z,966.31
2018-06-18T07:48:02.271Z,966.33
2018-06-18T07:49:02.260Z,966.32
2018-06-18T07:50:02.243Z,966.31
2018-06-18T07:51:02.228Z,966.36
2018-06-18T07:52:02.216Z,966.40
2018-06-18T07:53:02.201Z,966.35
2018-06-18T07:54:02.188Z,966.34
2018-06-18T07:55:02.173Z,966.28
2018-06-18T07:56:02.163Z,966.32
2018-06-18T07:57:02.149Z,966.35
2018-06-18T07:58:02.137Z,966.29
2018-06-18T07:59:02.118Z,966.25
2018-06-18T08:00:02.106Z,966.27
2018-06-18T08:01:02.092Z,966.26
2018-06-18T08:02:02.079Z,966.23
2018-06-18T08:03:02.064Z,966.21
2018-06-18T08:04:02.052Z,966.20
2018-06-18T08:05:02.039Z,966.22
2018-06-18T08:06:02.026Z,966.21
2018-06-18T08:07:02.011Z,966.23
2018-06-18T08:08:01.996Z,966.21
2018-06-18T08:09:01.982Z,966.22
2018-06-18T08:10:01.972Z,966.20
2018-06-18T08:11:01.954Z,966.20
2018-06-18T08:12:01.942Z,966.23
2018-06-18T08:13:01.928Z,966.24
2018-06-18T08:14:01.916Z,966.22
2018-06-18T08:15:01.900Z,966.18
2018-06-18T08:16:01.890Z,966.15
2018-06-18T08:17:01.874Z,966.19
2018-06-18T08:18:01.860Z,966.24
2018-06-18T08:19:01.846Z,966.19
2018-06-18T08:20:01.832Z,966.17
2018-06-18T08:21:01.820Z,966.17
2018-06-18T08:22:01.807Z,966.15
2018-06-18T08:23:01.794Z,966.12
2018-06-18T08:24:01.779Z,966.15
2018-06-18T08:25:01.766Z,966.15
2018-06-18T08:26:01.752Z,966.18
2018-06-18T08:27:01.814Z,966.16
2018-06-18T08:28:01.725Z,966.14
2018-06-18T08:29:01.711Z,966.17
2018-06-18T08:30:01.698Z,966.22
2018-06-18T08:31:01.683Z,966.18
2018-06-18T08:32:01.669Z,966.18
2018-06-18T08:33:01.656Z,966.22
2018-06-18T08:34:01.642Z,966.21
2018-06-18T08:35:01.630Z,966.18
2018-06-18T08:36:01.625Z,966.19
2018-06-18T08:37:01.601Z,966.20
2018-06-18T08:38:01.589Z,966.21
2018-06-18T08:39:01.573Z,966.21
2018-06-18T08:40:01.559Z,966.17
2018-06-18T08:41:01.547Z,966.18
2018-06-18T08:42:01.532Z,966.18
2018-06-18T08:43:01.516Z,966.17
2018-06-18T08:44:01.501Z,966.23
2018-06-18T08:45:03.741Z,966.18
2018-06-18T08:46:01.475Z,966.16
2018-06-18T08:47:01.458Z,966.23
2018-06-18T08:48:01.444Z,966.20
2018-06-18T08:49:01.431Z,966.18
2018-06-18T08:50:01.418Z,966.19
2018-06-18T08:51:01.404Z,966.21
2018-06-18T08:52:01.389Z,966.19
2018-06-18T08:53:01.374Z,966.16
2018-06-18T08:54:01.361Z,966.17
2018-06-18T08:55:01.350Z,966.18
2018-06-18T08:56:01.337Z,966.16
2018-06-18T08:57:01.317Z,966.15
2018-06-18T08:58:01.303Z,966.16
2018-06-18T08:59:01.289Z,966.13
2018-06-18T09:00:01.280Z,966.10
2018-06-18T09:01:01.262Z,966.14
2018-06-18T09:02:01.247Z,966.10
2018-06-18T09:03:01.231Z,966.09
2018-06-18T09:04:01.222Z,966.10
2018-06-18T09:05:01.205Z,966.10
2018-06-18T09:06:01.190Z,966.11
2018-06-18T09:07:01.180Z,966.16
2018-06-18T09:08:01.162Z,966.10
2018-06-18T09:09:01.148Z,966.16
2018-06-18T09:10:01.136Z,966.19
2018-06-18T09:11:01.120Z,966.16
2018-06-18T09:12:01.112Z,966.16
2018-06-18T09:13:01.095Z,966.13
2018-06-18T09:14:01.081Z,966.19
2018-06-18T09:15:01.064Z,966.22
2018-06-18T09:16:01.101Z,966.23
2018-06-18T09:17:01.039Z,966.26
2018-06-18T09:18:01.039Z,966.22
2018-06-18T09:19:01.012Z,966.31
2018-06-18T09:20:00.996Z,966.32
2018-06-18T09:21:00.981Z,966.31
2018-06-18T09:22:00.969Z,966.34
2018-06-18T09:23:00.954Z,966.33
2018-06-18T09:24:00.939Z,966.33
2018-06-18T09:25:00.925Z,966.34
2018-06-18T09:26:00.910Z,966.36
2018-06-18T09:27:00.895Z,966.39
2018-06-18T09:28:00.882Z,966.37
2018-06-18T09:29:00.868Z,966.41
2018-06-18T09:30:00.855Z,966.37
2018-06-18T09:31:00.840Z,966.34
2018-06-18T09:32:00.893Z,966.40
2018-06-18T09:33:00.812Z,966.38
2018-06-18T09:34:00.798Z,966.39
2018-06-18T09:35:00.785Z,966.39
2018-06-18T09:36:00.768Z,966.42
2018-06-18T09:37:00.755Z,966.40
2018-06-18T09:38:00.740Z,966.36
2018-06-18T09:39:00.725Z,966.39
2018-06-18T09:40:00.711Z,966.37
2018-06-18T09:41:00.698Z,966.44
2018-06-18T09:42:00.686Z,966.35
2018-06-18T09:43:02.172Z,966.33
2018-06-18T09:44:00.661Z,966.35
2018-06-18T09:45:00.643Z,966.37
2018-06-18T09:46:00.631Z,966.42
2018-06-18T09:47:00.615Z,966.44
2018-06-18T09:48:00.633Z,966.45
2018-06-18T09:49:00.592Z,966.41
2018-06-18T09:50:00.579Z,966.43
2018-06-18T09:51:00.562Z,966.36
2018-06-18T09:52:00.548Z,966.38
2018-06-18T09:53:00.536Z,966.34
2018-06-18T09:54:00.523Z,966.28
2018-06-18T09:55:00.508Z,966.32
2018-06-18T09:56:00.495Z,966.30
2018-06-18T09:57:00.482Z,966.34
2018-06-18T09:58:00.470Z,966.32
2018-06-18T09:59:00.457Z,966.33
2018-06-18T10:00:01.945Z,966.36
2018-06-18T10:01:00.431Z,966.32
2018-06-18T10:02:00.417Z,966.38
2018-06-18T10:03:00.405Z,966.36
2018-06-18T10:04:00.391Z,966.32
2018-06-18T10:05:00.379Z,966.33
2018-06-18T10:06:01.117Z,966.34
2018-06-18T10:07:00.352Z,966.34
2018-06-18T10:08:00.339Z,966.36
2018-06-18T10:09:00.327Z,966.37
2018-06-18T10:10:00.313Z,966.33
2018-06-18T10:11:00.300Z,966.33
2018-06-18T10:12:00.287Z,966.34
2018-06-18T10:13:00.276Z,966.38
2018-06-18T10:14:00.266Z,966.37
2018-06-18T10:15:00.252Z,966.35
2018-06-18T10:16:00.236Z,966.42
2018-06-18T10:17:00.224Z,966.39
2018-06-18T10:18:00.211Z,966.41
2018-06-18T10:19:00.197Z,966.40
2018-06-18T10:20:00.185Z,966.41
2018-06-18T10:21:00.178Z,966.39
2018-06-18T10:22:00.161Z,966.35
2018-06-18T10:23:00.146Z,966.35
2018-06-18T10:24:00.134Z,966.38
2018-06-18T10:25:00.123Z,966.40
2018-06-18T10:26:00.109Z,966.40
2018-06-18T10:27:00.096Z,966.35
2018-06-18T10:28:00.084Z,966.36
2018-06-18T10:29:00.070Z,966.33
2018-06-18T10:30:00.071Z,966.33
2018-06-18T10:31:00.128Z,966.25
2018-06-18T10:32:00.040Z,966.24
2018-06-18T10:33:00.023Z,966.26
2018-06-18T10:34:00.003Z,966.29
2018-06-18T10:34:59.987Z,966.31
2018-06-18T10:35:59.974Z,966.34
2018-06-18T10:36:59.963Z,966.32
2018-06-18T10:37:59.948Z,966.27
2018-06-18T10:38:59.933Z,966.34
2018-06-18T10:39:59.920Z,966.26
2018-06-18T10:40:59.908Z,966.26
2018-06-18T10:41:59.895Z,966.28
2018-06-18T10:42:59.881Z,966.26
2018-06-18T10:43:59.867Z,966.32
2018-06-18T10:44:59.854Z,966.29
2018-06-18T10:45:59.841Z,966.31
2018-06-18T10:46:59.828Z,966.28
2018-06-18T10:47:59.816Z,966.28
2018-06-18T10:48:59.832Z,966.27
2018-06-18T10:49:59.791Z,966.28
2018-06-18T10:50:59.777Z,966.29
2018-06-18T10:51:59.763Z,966.24
2018-06-18T10:53:02.754Z,966.27
2018-06-18T10:53:59.740Z,966.29
2018-06-18T10:54:59.725Z,966.27
2018-06-18T10:55:59.714Z,966.31
2018-06-18T10:56:59.754Z,966.31
2018-06-18T10:57:59.707Z,966.31
2018-06-18T10:59:00.423Z,966.35
2018-06-18T10:59:59.659Z,966.30
2018-06-18T11:00:59.646Z,966.27
2018-06-18T11:01:59.633Z,966.23
2018-06-18T11:02:59.621Z,966.28
2018-06-18T11:03:59.606Z,966.31
2018-06-18T11:04:59.593Z,966.25
2018-06-18T11:05:59.582Z,966.27
2018-06-18T11:06:59.567Z,966.26
2018-06-18T11:07:59.553Z,966.27
2018-06-18T11:08:59.539Z,966.23
2018-06-18T11:09:59.526Z,966.23
2018-06-18T11:10:59.511Z,966.23
2018-06-18T11:11:59.497Z,966.27
2018-06-18T11:12:59.485Z,966.27
2018-06-18T11:13:59.471Z,966.25
2018-06-18T11:14:59.455Z,966.23
2018-06-18T11:15:59.529Z,966.23
2018-06-18T11:16:59.637Z,966.24
2018-06-18T11:17:59.414Z,966.24
2018-06-18T11:18:59.400Z,966.26
2018-06-18T11:19:59.386Z,966.25
2018-06-18T11:20:59.373Z,966.21
2018-06-18T11:21:59.370Z,966.22
2018-06-18T11:22:59.364Z,966.25
2018-06-18T11:23:59.331Z,966.26
2018-06-18T11:24:59.320Z,966.25
2018-06-18T11:25:59.305Z,966.23
2018-06-18T11:26:59.346Z,966.26
2018-06-18T11:27:59.276Z,966.29
2018-06-18T11:28:59.267Z,966.23
2018-06-18T11:29:59.257Z,966.16
2018-06-18T11:30:59.235Z,966.13
2018-06-18T11:31:59.222Z,966.13
2018-06-18T11:32:59.213Z,966.14
2018-06-18T11:33:59.204Z,966.09
2018-06-18T11:34:59.238Z,966.09
2018-06-18T11:35:59.170Z,966.09
2018-06-18T11:36:59.157Z,966.09
2018-06-18T11:37:59.148Z,966.06
2018-06-18T11:38:59.131Z,966.00
2018-06-18T11:39:59.117Z,966.00
2018-06-18T11:40:59.105Z,966.02
2018-06-18T11:41:59.266Z,966.00
2018-06-18T11:42:59.079Z,965.97
2018-06-18T11:43:59.068Z,966.03
2018-06-18T11:44:59.053Z,966.01
2018-06-18T11:45:59.045Z,966.01
2018-06-18T11:46:59.030Z,966.04
2018-06-18T11:47:59.097Z,965.99
2018-06-18T11:48:59.003Z,966.03
2018-06-18T11:49:58.994Z,966.05
2018-06-18T11:50:58.976Z,966.02
2018-06-18T11:51:58.969Z,966.06
2018-06-18T11:52:58.953Z,966.00
2018-06-18T11:53:58.939Z,966.05
2018-06-18T11:54:58.926Z,966.04
2018-06-18T11:55:58.974Z,966.01
2018-06-18T11:56:58.900Z,966.04
2018-06-18T11:57:58.889Z,966.02
2018-06-18T11:58:58.874Z,966.02
2018-06-18T11:59:58.862Z,966.00
2018-06-18T12:00:58.848Z,966.03
2018-06-18T12:01:58.852Z,965.97
2018-06-18T12:03:01.826Z,965.96
2018-06-18T12:03:58.855Z,965.93
2018-06-18T12:04:58.798Z,965.94
2018-06-18T12:05:58.785Z,965.93
2018-06-18T12:06:58.819Z,965.95
2018-06-18T12:07:58.768Z,965.99
2018-06-18T12:08:58.748Z,965.98
2018-06-18T12:09:58.762Z,965.99
2018-06-18T12:10:58.720Z,965.94
2018-06-18T12:11:58.709Z,965.98
2018-06-18T12:12:58.695Z,966.02
2018-06-18T12:13:58.684Z,966.04
2018-06-18T12:14:58.672Z,966.08
2018-06-18T12:15:58.657Z,966.06
2018-06-18T12:16:58.644Z,966.08
2018-06-18T12:17:58.632Z,966.08
2018-06-18T12:18:58.618Z,966.08
2018-06-18T12:19:58.607Z,966.09
2018-06-18T12:20:58.594Z,966.11
2018-06-18T12:21:58.581Z,966.13
2018-06-18T12:22:58.581Z,966.09
2018-06-18T12:23:58.555Z,966.07
2018-06-18T12:24:58.543Z,966.07
2018-06-18T12:25:58.532Z,966.08
2018-06-18T12:26:58.517Z,966.02
2018-06-18T12:27:58.506Z,966.06